Flight Track Log - Related Links

Times and Time Zones

All times are in EST time to prevent confusion due to time zone crossing. See the CSN3630 flight status page for this flight to view local times or setup timezone preferences in your user account.

Time Position Orientation Groundspeed Altitude Reporting Facility
EST Latitude Longitude Course Direction KTS MPH feet Rate Location/Type
Wed 04:01:00 AM 43.8484 87.6229 119° Southeast  Level Estimated
Wed 04:02:00 AM 43.7895 87.7712 119° Southeast  Level Estimated
Wed 04:03:00 AM 43.7304 87.9192 119° Southeast  Level Estimated
Wed 04:04:00 AM 43.6711 88.0670 119° Southeast  Level Estimated
Wed 04:05:00 AM 43.6117 88.2144 119° Southeast  Level Estimated
Wed 04:06:00 AM 43.5520 88.3616 119° Southeast  Level Estimated
Wed 04:07:00 AM 43.4922 88.5085 119° Southeast  Level Estimated
Wed 04:08:00 AM 43.4321 88.6551 119° Southeast  Level Estimated
Wed 04:09:00 AM 43.3719 88.8013 119° Southeast  Level Estimated
Wed 04:10:00 AM 43.3115 88.9473 120° Southeast  Level Estimated
Wed 04:11:00 AM 43.2509 89.0930 120° Southeast  Level Estimated
Wed 04:12:00 AM 43.1901 89.2385 120° Southeast  Level Estimated
Wed 04:13:00 AM 43.1292 89.3836 120° Southeast  Level Estimated
Wed 04:14:00 AM 43.0680 89.5284 120° Southeast  Level Estimated
Wed 04:15:00 AM 43.0067 89.6730 120° Southeast  Level Estimated
Wed 04:16:00 AM 42.9452 89.8172 120° Southeast  Level Estimated
Wed 04:17:00 AM 42.8835 89.9612 120° Southeast  Level Estimated
Wed 04:18:00 AM 42.8216 90.1049 120° Southeast  Level Estimated
Wed 04:19:00 AM 42.7596 90.2483 120° Southeast  Level Estimated
Wed 04:20:00 AM 42.6974 90.3914 121° Southeast  Level Estimated
Wed 04:21:00 AM 42.6320 90.5411 121° Southeast  Level Estimated
Wed 04:22:00 AM 42.5663 90.6904 121° Southeast  Level Estimated
Wed 04:23:00 AM 42.5005 90.8395 121° Southeast  Level Estimated
Wed 04:24:00 AM 42.4346 90.9882 121° Southeast  Level Estimated
Wed 04:25:00 AM 42.3684 91.1367 121° Southeast  Level Estimated
Wed 04:26:00 AM 42.3020 91.2848 121° Southeast  Level Estimated
Wed 04:27:00 AM 42.2355 91.4326 121° Southeast  Level Estimated
Wed 04:28:00 AM 42.1687 91.5800 121° Southeast  Level Estimated
Wed 04:29:00 AM 42.1017 91.7272 121° Southeast  Level Estimated
Wed 04:30:00 AM 42.0346 91.8741 122° Southeast  Level Estimated
Wed 04:31:00 AM 41.9673 92.0207 122° Southeast  Level Estimated
Wed 04:32:00 AM 41.8998 92.1669 122° Southeast  Level Estimated
Wed 04:33:00 AM 41.8321 92.3128 122° Southeast  Level Estimated
Wed 04:34:00 AM 41.7643 92.4585 122° Southeast  Level Estimated
Wed 04:35:00 AM 41.6962 92.6038 122° Southeast  Level Estimated
Wed 04:36:00 AM 41.6280 92.7488 122° Southeast  Level Estimated
Wed 04:37:00 AM 41.5595 92.8935 122° Southeast  Level Estimated
Wed 04:38:00 AM 41.4909 93.0379 122° Southeast  Level Estimated
Wed 04:39:00 AM 41.4222 93.1820 122° Southeast  Level Estimated
Wed 04:40:00 AM 41.3532 93.3258 123° Southeast  Level Estimated
Wed 04:41:00 AM 41.2841 93.4693 123° Southeast  Level Estimated
Wed 04:42:00 AM 41.2147 93.6124 123° Southeast  Level Estimated
Wed 04:43:00 AM 41.1453 93.7553 123° Southeast  Level Estimated
Wed 04:44:00 AM 41.0756 93.8979 123° Southeast  Level Estimated
Wed 04:45:00 AM 41.0057 94.0401 123° Southeast  Level Estimated
Wed 04:46:00 AM 40.9357 94.1821 123° Southeast  Level Estimated
Wed 04:47:00 AM 40.8655 94.3238 123° Southeast  Level Estimated
Wed 04:48:00 AM 40.7952 94.4651 123° Southeast  Level Estimated
Wed 04:49:00 AM 40.7246 94.6062 123° Southeast  Level Estimated
Wed 04:50:00 AM 40.6539 94.7470 123° Southeast  Level Estimated
Wed 04:51:00 AM 40.5830 94.8875 124° Southeast  Level Estimated
Wed 04:52:00 AM 40.5120 95.0276 124° Southeast  Level Estimated
Wed 04:53:00 AM 40.4408 95.1675 124° Southeast  Level Estimated
Wed 04:54:00 AM 40.3694 95.3071 124° Southeast  Level Estimated
Wed 04:55:00 AM 40.2978 95.4464 124° Southeast  Level Estimated
Wed 04:56:00 AM 40.2261 95.5853 124° Southeast  Level Estimated
Wed 04:57:00 AM 40.1542 95.7240 124° Southeast  Level Estimated
Wed 04:58:00 AM 40.0822 95.8624 124° Southeast  Level Estimated
Wed 04:59:00 AM 40.0100 96.0005 124° Southeast  Level Estimated
Wed 05:00:00 AM 39.9376 96.1384 124° Southeast  Level Estimated
Wed 05:01:00 AM 39.8650 96.2759 124° Southeast  Level Estimated
Wed 05:02:00 AM 39.7923 96.4131 125° Southeast  Level Estimated
Wed 05:03:00 AM 39.7195 96.5500 125° Southeast  Level Estimated
Wed 05:04:00 AM 39.6465 96.6867 125° Southeast  Level Estimated
Wed 05:05:00 AM 39.5733 96.8231 125° Southeast  Level Estimated
Wed 05:06:00 AM 39.4999 96.9591 125° Southeast  Level Estimated
Wed 05:07:00 AM 39.4264 97.0949 125° Southeast  Level Estimated
Wed 05:08:00 AM 39.3527 97.2304 125° Southeast  Level Estimated
Wed 05:09:00 AM 39.2789 97.3656 125° Southeast  Level Estimated
Wed 05:10:00 AM 39.2050 97.5006 125° Southeast  Level Estimated
Wed 05:11:00 AM 39.1308 97.6352 125° Southeast  Level Estimated
Wed 05:12:00 AM 39.0565 97.7696 125° Southeast  Level Estimated
Wed 05:13:00 AM 38.9821 97.9037 126° Southeast  Level Estimated
Wed 05:14:00 AM 38.9075 98.0375 126° Southeast  Level Estimated
Wed 05:15:00 AM 38.8328 98.1710 126° Southeast  Level Estimated
Wed 05:16:00 AM 38.7579 98.3042 126° Southeast  Level Estimated
Wed 05:17:00 AM 38.6828 98.4372 126° Southeast  Level Estimated
Wed 05:18:00 AM 38.6076 98.5699 126° Southeast  Level Estimated
Wed 05:19:00 AM 38.5323 98.7023 126° Southeast  Level Estimated
Wed 05:20:00 AM 38.4568 98.8344 126° Southeast  Level Estimated
Wed 05:21:00 AM 38.3812 98.9662 126° Southeast  Level Estimated
Wed 05:22:00 AM 38.3054 99.0978 126° Southeast  Level Estimated
Wed 05:23:00 AM 38.2294 99.2291 126° Southeast  Level Estimated
Wed 05:24:00 AM 38.1534 99.3601 126° Southeast  Level Estimated
Wed 05:25:00 AM 38.0771 99.4909 126° Southeast  Level Estimated
Wed 05:26:00 AM 38.0008 99.6213 127° Southeast  Level Estimated
Wed 05:27:00 AM 37.9242 99.7515 127° Southeast  Level Estimated
Wed 05:28:00 AM 37.8476 99.8815 127° Southeast  Level Estimated
Wed 05:29:00 AM 37.7708 100.0111 127° Southeast  Level Estimated
Wed 05:30:00 AM 37.6938 100.1405 127° Southeast  Level Estimated
Wed 05:31:00 AM 37.6167 100.2697 127° Southeast  Level Estimated
Wed 05:32:00 AM 37.5395 100.3985 127° Southeast  Level Estimated
Wed 05:33:00 AM 37.4622 100.5271 127° Southeast  Level Estimated
Wed 05:34:00 AM 37.3847 100.6554 127° Southeast  Level Estimated
Wed 05:35:00 AM 37.3070 100.7835 127° Southeast  Level Estimated
Wed 05:36:00 AM 37.2292 100.9113 127° Southeast  Level Estimated
Wed 05:37:00 AM 37.1513 101.0388 127° Southeast  Level Estimated
Wed 05:38:00 AM 37.0733 101.1661 128° Southeast  Level Estimated
Wed 05:39:00 AM 36.9951 101.2931 128° Southeast  Level Estimated
Wed 05:40:00 AM 36.9168 101.4198 128° Southeast  Level Estimated
Wed 05:41:00 AM 36.8383 101.5463 128° Southeast  Level Estimated
Wed 05:42:00 AM 36.7597 101.6726 128° Southeast  Level Estimated
Wed 05:43:00 AM 36.6810 101.7985 128° Southeast  Level Estimated
Wed 05:44:00 AM 36.6021 101.9242 128° Southeast  Level Estimated
Wed 05:45:00 AM 36.5275 102.0428 128° Southeast  Level Estimated
Wed 05:46:00 AM 36.5275 102.0428 North  Level Estimated
Wed 05:47:00 AM 36.5275 102.0428 North  Level Estimated
Wed 05:48:00 AM 36.5275 102.0428 North  Level Estimated
Wed 05:49:00 AM 36.5275 102.0428 North  Level Estimated
Wed 05:50:00 AM 36.5275 102.0428 North  Level Estimated
Wed 05:51:00 AM 36.5275 102.0428 North  Level Estimated
Wed 05:52:00 AM 36.5275 102.0428 North  Level Estimated
Wed 05:53:00 AM 36.5275 102.0428 North  Level Estimated
Wed 05:54:00 AM 36.5275 102.0428 North  Level Estimated
Wed 05:55:00 AM 36.5275 102.0428 North  Level Estimated
Wed 05:56:00 AM 36.5275 102.0428 North  Level Estimated
Wed 05:57:00 AM 36.5275 102.0428 North  Level Estimated
Wed 05:58:00 AM 36.5275 102.0428 North  Level Estimated
Wed 05:59:00 AM 36.5275 102.0428 North  Level Estimated
Wed 06:00:00 AM 36.5275 102.0428 North  Level Estimated
Wed 06:01:00 AM 36.5275 102.0428 North  Level Estimated
Wed 06:02:00 AM 36.5275 102.0428 North  Level Estimated
Wed 06:03:00 AM 36.5275 102.0428 North  Level Estimated
Wed 06:04:00 AM 36.5275 102.0428 North  Level Estimated
Wed 06:05:00 AM 36.5275 102.0428 North  Level Estimated
Wed 06:06:00 AM 36.5275 102.0428 North  Level Estimated
Wed 06:07:00 AM 36.5275 102.0428 North  Level Estimated
Wed 06:08:00 AM 36.5275 102.0428 North  Level Estimated
Wed 06:09:00 AM 36.5275 102.0428 North  Level Estimated
Wed 06:10:00 AM 36.5275 102.0428 North  Level Estimated
Wed 06:11:00 AM 36.5275 102.0428 North  Level Estimated
Wed 06:12:00 AM 36.5275 102.0428 North  Level Estimated

Login

Don't have an account? Register now (free) for customized features, flight alerts, and more!